Time;durP1;ratioP1;P1;durP2;ratioP2;P2;SDS_P1;SDS_P2;PMS_P1;PMS_P2;Temp;Humidity;BMP_temperature;BMP_pressure;BME280_temperature;BME280_humidity;BME280_pressure;Samples;Min_cycle;Max_cycle;Signal;HPM_P1;HPM_P2
2021/04/23 00:01:43;;;;;;;7.27;2.20;;;20.30;99.90;;;;;;4978261;28;20211;-90
2021/04/23 00:04:14;;;;;;;4.93;2.47;;;20.10;99.90;;;;;;4981581;28;20242;-90
2021/04/23 00:06:46;;;;;;;6.47;2.33;;;20.20;99.90;;;;;;4980914;28;20223;-89
2021/04/23 00:09:19;;;;;;;7.63;2.67;;;20.00;99.90;;;;;;4979744;28;20254;-88
2021/04/23 00:11:52;;;;;;;6.73;2.70;;;19.30;99.90;;;;;;4980048;28;20291;-89
2021/04/23 00:14:25;;;;;;;7.73;2.70;;;18.70;99.90;;;;;;4979002;28;20258;-89
2021/04/23 00:16:56;;;;;;;4.90;2.33;;;19.00;99.90;;;;;;4982384;28;20241;-89
2021/04/23 00:19:28;;;;;;;6.47;2.67;;;19.10;99.90;;;;;;4980491;28;20214;-90
2021/04/23 00:22:00;;;;;;;7.47;3.00;;;18.80;99.90;;;;;;4980809;28;20207;-89
2021/04/23 00:24:30;;;;;;;6.77;2.23;;;19.20;99.90;;;;;;4979868;28;20644;-89
2021/04/23 00:27:02;;;;;;;8.07;2.70;;;19.60;99.90;;;;;;4972231;28;20214;-89
2021/04/23 00:29:33;;;;;;;8.97;2.60;;;19.50;99.90;;;;;;4960493;29;20274;-89
2021/04/23 00:34:53;;;;;;;8.73;2.97;;;19.30;99.90;;;;;;4958189;28;20270;-90
2021/04/23 00:37:23;;;;;;;7.00;2.70;;;19.40;99.90;;;;;;4958898;29;20239;-90
2021/04/23 00:39:53;;;;;;;7.50;2.60;;;19.50;99.90;;;;;;4960748;28;20637;-89
2021/04/23 00:42:24;;;;;;;8.27;2.77;;;19.50;99.90;;;;;;4956469;29;20242;-89
2021/04/23 00:44:54;;;;;;;7.93;2.47;;;19.50;99.90;;;;;;4959911;28;20226;-89
2021/04/23 00:47:24;;;;;;;5.63;2.70;;;19.40;99.90;;;;;;4958817;29;20212;-87
2021/04/23 00:49:55;;;;;;;15.40;2.63;;;19.40;99.90;;;;;;4959481;28;20263;-88
2021/04/23 00:52:25;;;;;;;89.10;8.50;;;19.10;99.90;;;;;;4957788;28;20211;-88
2021/04/23 00:54:55;;;;;;;11.97;2.70;;;19.00;99.90;;;;;;4958753;28;20235;-90
2021/04/23 00:57:26;;;;;;;44.17;4.43;;;19.20;99.90;;;;;;4959398;28;20258;-88
2021/04/23 00:59:57;;;;;;;8.07;2.23;;;19.30;99.90;;;;;;4959677;28;20295;-89
2021/04/23 01:02:28;;;;;;;5.53;2.37;;;19.70;99.90;;;;;;4957173;29;20215;-89
2021/04/23 01:04:59;;;;;;;7.80;2.60;;;20.00;99.90;;;;;;4958475;28;20683;-89
2021/04/23 01:07:30;;;;;;;4.93;2.23;;;20.30;99.90;;;;;;4961286;29;20246;-88
2021/04/23 01:10:03;;;;;;;6.97;2.33;;;20.40;99.90;;;;;;4950143;29;20235;-88
2021/04/23 01:12:35;;;;;;;6.93;2.03;;;20.50;99.90;;;;;;4960048;28;20267;-88
2021/04/23 01:15:08;;;;;;;9.23;2.70;;;20.70;99.90;;;;;;4962165;28;20231;-89
2021/04/23 01:17:38;;;;;;;9.43;2.60;;;20.60;99.90;;;;;;4958335;28;20281;-89
2021/04/23 01:20:10;;;;;;;7.37;2.43;;;20.70;99.90;;;;;;4958820;28;20212;-89
2021/04/23 01:22:42;;;;;;;8.13;2.40;;;20.60;99.90;;;;;;4957638;28;20212;-89
2021/04/23 01:25:15;;;;;;;6.50;2.30;;;20.80;99.90;;;;;;4960276;28;20270;-90
2021/04/23 01:27:46;;;;;;;6.80;2.10;;;20.60;99.90;;;;;;4960503;28;20207;-89
2021/04/23 01:30:20;;;;;;;6.67;2.27;;;20.30;99.90;;;;;;4962943;28;20208;-90
2021/04/23 01:32:52;;;;;;;5.17;2.30;;;20.70;99.90;;;;;;4956254;29;20211;-90
2021/04/23 01:35:26;;;;;;;7.63;2.30;;;20.80;99.90;;;;;;4962152;28;20212;-90
2021/04/23 01:37:58;;;;;;;6.50;2.23;;;20.40;99.90;;;;;;4966045;28;20312;-90
2021/04/23 01:40:28;;;;;;;7.23;2.20;;;19.90;99.90;;;;;;4976078;28;20203;-91
2021/04/23 01:42:59;;;;;;;7.80;2.80;;;19.70;99.90;;;;;;4977156;28;20258;-92
2021/04/23 01:45:30;;;;;;;6.63;2.57;;;19.20;99.90;;;;;;4977654;28;20313;-91
2021/04/23 01:48:01;;;;;;;6.97;2.23;;;18.70;99.90;;;;;;4978507;28;20317;-91
2021/04/23 01:50:32;;;;;;;6.70;2.80;;;18.00;99.90;;;;;;4983614;28;20234;-91
2021/04/23 01:53:04;;;;;;;12.17;2.80;;;17.70;99.90;;;;;;4995189;28;20183;-92
2021/04/23 01:55:37;;;;;;;7.57;2.50;;;17.00;99.90;;;;;;4995296;28;20199;-92
2021/04/23 01:58:08;;;;;;;8.80;2.37;;;16.90;99.90;;;;;;4970018;28;20299;-91
2021/04/23 02:00:43;;;;;;;8.33;2.87;;;17.30;99.90;;;;;;4966443;29;20208;-92
2021/04/23 02:03:14;;;;;;;6.23;2.40;;;17.30;99.90;;;;;;4960965;28;20207;-91
2021/04/23 02:05:47;;;;;;;8.90;2.70;;;17.30;99.90;;;;;;4963622;28;20211;-91
2021/04/23 02:08:22;;;;;;;5.40;2.40;;;17.10;99.90;;;;;;4964836;28;20208;-89
2021/04/23 02:11:01;;;;;;;6.80;2.47;;;16.90;99.90;;;;;;4966953;28;20646;-90
2021/04/23 02:13:31;;;;;;;7.80;2.90;;;16.70;99.90;;;;;;4960776;29;20211;-91
2021/04/23 02:16:02;;;;;;;8.30;2.60;;;16.70;99.90;;;;;;4959151;28;20220;-90
2021/04/23 02:18:33;;;;;;;6.40;2.67;;;16.40;99.90;;;;;;4961309;29;20271;-91
2021/04/23 02:21:04;;;;;;;6.50;2.20;;;16.20;99.90;;;;;;4960560;28;20216;-91
2021/04/23 02:23:38;;;;;;;5.47;2.70;;;16.00;99.90;;;;;;4959815;28;20214;-92
2021/04/23 02:26:10;;;;;;;10.10;2.67;;;15.90;99.90;;;;;;4959322;29;20238;-91
2021/04/23 02:28:41;;;;;;;6.50;2.37;;;15.90;99.90;;;;;;4958322;28;20570;-91
2021/04/23 02:31:14;;;;;;;6.87;2.37;;;15.80;99.90;;;;;;4956613;28;20230;-92
2021/04/23 02:33:47;;;;;;;5.13;2.27;;;15.70;99.90;;;;;;4993024;28;20202;-92
2021/04/23 02:36:18;;;;;;;8.80;2.40;;;15.60;99.90;;;;;;4955896;28;20321;-92
2021/04/23 02:38:51;;;;;;;7.03;2.50;;;15.50;99.90;;;;;;4958953;28;20238;-91
2021/04/23 02:41:22;;;;;;;9.23;2.43;;;15.50;99.90;;;;;;4958271;28;20210;-91
2021/04/23 02:43:55;;;;;;;8.17;2.70;;;15.40;99.90;;;;;;4957844;28;20727;-91
2021/04/23 02:46:28;;;;;;;10.50;2.40;;;15.30;99.90;;;;;;4956455;28;20216;-91
2021/04/23 02:48:59;;;;;;;6.67;2.50;;;15.20;99.90;;;;;;4955632;29;20214;-90
2021/04/23 02:51:33;;;;;;;9.17;2.93;;;15.10;99.90;;;;;;4956361;28;20215;-90
2021/04/23 02:54:08;;;;;;;10.07;2.53;;;15.10;99.90;;;;;;4954350;29;20235;-90
2021/04/23 02:56:39;;;;;;;10.53;2.43;;;15.00;99.90;;;;;;4956699;28;20211;-90
2021/04/23 02:59:11;;;;;;;6.73;1.93;;;14.90;99.90;;;;;;4956634;28;20315;-90
2021/04/23 03:01:44;;;;;;;8.27;2.83;;;14.80;99.90;;;;;;4956336;28;20396;-90
2021/04/23 03:04:15;;;;;;;5.60;2.30;;;14.60;99.90;;;;;;4955920;28;20211;-90
2021/04/23 03:06:46;;;;;;;7.93;2.63;;;14.50;99.90;;;;;;4956081;28;20609;-90
2021/04/23 03:09:18;;;;;;;7.43;2.33;;;14.40;99.90;;;;;;4956175;28;20219;-90
2021/04/23 03:11:49;;;;;;;7.87;2.50;;;14.40;99.90;;;;;;4957203;28;20645;-90
2021/04/23 03:14:19;;;;;;;7.30;2.53;;;14.30;99.90;;;;;;4954877;28;20507;-90
2021/04/23 03:16:50;;;;;;;7.10;2.70;;;14.20;99.90;;;;;;4956271;28;20235;-91
2021/04/23 03:19:25;;;;;;;7.93;2.30;;;14.10;99.90;;;;;;4957593;28;20235;-88
2021/04/23 03:21:56;;;;;;;7.13;2.50;;;14.00;99.90;;;;;;4960444;28;20239;-91
2021/04/23 03:24:28;;;;;;;8.77;2.77;;;13.90;99.90;;;;;;4959950;28;20262;-91
2021/04/23 03:26:59;;;;;;;8.73;2.40;;;13.80;99.90;;;;;;4960283;28;20211;-91
2021/04/23 03:29:29;;;;;;;5.67;2.47;;;13.70;99.90;;;;;;4958912;28;20306;-91
2021/04/23 03:32:00;;;;;;;8.60;2.70;;;13.60;99.90;;;;;;4964057;29;20270;-91
2021/04/23 03:34:31;;;;;;;9.23;3.00;;;13.60;99.90;;;;;;4973634;28;20298;-90
2021/04/23 03:37:01;;;;;;;8.23;2.57;;;13.50;99.90;;;;;;4980434;28;20207;-91
2021/04/23 03:39:34;;;;;;;9.77;2.57;;;13.40;99.90;;;;;;4979733;28;20238;-91
2021/04/23 03:42:05;;;;;;;13.20;2.83;;;13.40;99.90;;;;;;4979104;28;20647;-92
2021/04/23 03:44:36;;;;;;;8.33;3.00;;;13.30;99.90;;;;;;4978800;28;20269;-91
2021/04/23 03:47:07;;;;;;;8.77;2.90;;;13.30;99.90;;;;;;4979817;28;20298;-90
2021/04/23 03:49:44;;;;;;;7.00;2.50;;;13.20;99.90;;;;;;4981136;28;20227;-90
2021/04/23 03:52:14;;;;;;;12.40;2.90;;;13.20;99.90;;;;;;4982841;28;20215;-90
2021/04/23 03:54:48;;;;;;;5.90;2.47;;;13.10;99.90;;;;;;4981878;28;20211;-90
2021/04/23 03:57:19;;;;;;;8.73;3.00;;;13.10;99.90;;;;;;4982962;28;20214;-91
2021/04/23 03:59:49;;;;;;;11.33;3.17;;;13.10;99.90;;;;;;4979555;28;20239;-90
2021/04/23 04:02:22;;;;;;;8.20;2.83;;;13.00;99.90;;;;;;4979842;28;20207;-90
2021/04/23 04:04:52;;;;;;;9.10;2.70;;;13.00;99.90;;;;;;4978269;28;20211;-89
2021/04/23 04:07:24;;;;;;;9.87;2.93;;;12.90;99.90;;;;;;4978378;28;20242;-90
2021/04/23 04:09:56;;;;;;;14.33;3.37;;;12.90;99.90;;;;;;4987913;28;20251;-89
2021/04/23 04:12:27;;;;;;;10.27;3.20;;;12.80;99.90;;;;;;4997913;28;20211;-90
2021/04/23 04:14:58;;;;;;;6.43;2.83;;;12.80;99.90;;;;;;4996784;28;20251;-90
2021/04/23 04:17:28;;;;;;;14.67;3.57;;;12.70;99.90;;;;;;4982619;28;20214;-91
2021/04/23 04:20:00;;;;;;;10.03;2.80;;;12.70;99.90;;;;;;4983741;28;20233;-91
2021/04/23 04:22:31;;;;;;;9.80;3.13;;;12.70;99.90;;;;;;4983314;28;20261;-90
2021/04/23 04:25:03;;;;;;;12.10;3.63;;;12.70;99.90;;;;;;4983169;28;20265;-91
2021/04/23 04:27:34;;;;;;;8.07;3.33;;;12.70;99.90;;;;;;4986851;28;20258;-92
2021/04/23 04:30:05;;;;;;;12.77;3.70;;;12.60;99.90;;;;;;5006965;28;20210;-92
2021/04/23 04:32:39;;;;;;;9.27;3.77;;;12.50;99.90;;;;;;4998492;28;20629;-92
2021/04/23 04:35:11;;;;;;;8.93;3.20;;;12.40;99.90;;;;;;4987099;28;20224;-91
2021/04/23 04:37:42;;;;;;;10.80;3.43;;;12.20;99.90;;;;;;4980943;28;20215;-91
2021/04/23 04:40:17;;;;;;;14.13;3.60;;;12.20;99.90;;;;;;4963330;28;20235;-92
2021/04/23 04:42:47;;;;;;;12.07;4.23;;;12.10;99.90;;;;;;4961084;28;20272;-92
2021/04/23 04:45:21;;;;;;;9.70;4.10;;;12.10;99.90;;;;;;4962526;28;20266;-92
2021/04/23 04:47:51;;;;;;;11.13;3.60;;;12.00;99.90;;;;;;4961664;29;20204;-91
2021/04/23 04:50:27;;;;;;;13.47;3.73;;;12.00;99.90;;;;;;4962966;29;20211;-90
2021/04/23 04:52:59;;;;;;;12.27;3.50;;;12.00;99.90;;;;;;4961574;29;20259;-90
2021/04/23 04:55:33;;;;;;;10.07;3.60;;;12.00;99.90;;;;;;4963200;28;20223;-91
2021/04/23 04:58:05;;;;;;;14.90;4.43;;;12.00;99.90;;;;;;4961863;28;20294;-91
2021/04/23 05:00:38;;;;;;;19.23;6.23;;;12.10;99.90;;;;;;4959397;29;20226;-91
2021/04/23 05:03:10;;;;;;;13.87;5.87;;;12.10;99.90;;;;;;4962395;28;20215;-91
2021/04/23 05:05:42;;;;;;;16.00;6.40;;;12.10;99.90;;;;;;4959588;28;20211;-92
2021/04/23 05:08:13;;;;;;;16.23;6.63;;;12.10;99.90;;;;;;4959917;28;20251;-91
2021/04/23 05:10:46;;;;;;;11.83;5.60;;;12.10;99.90;;;;;;4962040;28;20219;-91
2021/04/23 05:13:16;;;;;;;11.33;4.80;;;12.10;99.90;;;;;;4960680;29;20665;-91
2021/04/23 05:15:47;;;;;;;10.37;3.83;;;12.00;99.90;;;;;;4958978;28;20629;-90
2021/04/23 05:18:17;;;;;;;14.27;4.00;;;11.90;99.90;;;;;;4964878;28;20231;-91
2021/04/23 05:20:48;;;;;;;11.40;3.77;;;11.90;99.90;;;;;;4962880;28;20223;-91
2021/04/23 05:23:18;;;;;;;8.93;3.67;;;11.80;99.90;;;;;;4961158;29;20214;-91
2021/04/23 05:25:50;;;;;;;12.37;4.13;;;11.80;99.90;;;;;;4958889;28;20266;-91
2021/04/23 05:28:20;;;;;;;13.37;4.20;;;11.80;99.90;;;;;;4962848;28;20207;-91
2021/04/23 05:30:51;;;;;;;11.20;3.83;;;11.80;99.90;;;;;;4979174;28;20266;-92
2021/04/23 05:33:21;;;;;;;13.07;3.93;;;11.80;99.90;;;;;;4980194;28;20234;-92
2021/04/23 05:35:52;;;;;;;9.90;3.67;;;11.80;99.90;;;;;;4979527;28;20214;-91
2021/04/23 05:38:23;;;;;;;13.63;4.27;;;11.90;99.90;;;;;;4980154;28;20257;-91
2021/04/23 05:40:55;;;;;;;13.27;3.97;;;11.90;99.90;;;;;;4984969;28;20554;-91
2021/04/23 05:43:26;;;;;;;18.87;4.67;;;11.90;99.90;;;;;;4984765;28;20337;-91
2021/04/23 05:45:56;;;;;;;12.93;3.53;;;11.90;99.90;;;;;;4983752;28;20234;-91
2021/04/23 05:48:27;;;;;;;14.67;4.00;;;11.90;99.90;;;;;;4984760;28;20207;-90
2021/04/23 05:50:58;;;;;;;22.10;4.77;;;11.90;99.90;;;;;;4984546;28;20235;-91
2021/04/23 05:53:29;;;;;;;14.17;4.77;;;11.80;99.90;;;;;;4965272;28;20231;-90
2021/04/23 05:56:01;;;;;;;12.03;3.67;;;11.70;99.90;;;;;;4964843;29;20248;-91
2021/04/23 05:58:32;;;;;;;16.10;4.27;;;11.60;99.90;;;;;;4965862;29;20278;-90
2021/04/23 06:01:03;;;;;;;14.27;4.33;;;11.60;99.90;;;;;;4965693;28;20216;-91
2021/04/23 06:03:33;;;;;;;12.27;4.20;;;11.60;99.90;;;;;;4966021;29;20208;-91
2021/04/23 06:06:05;;;;;;;18.93;4.47;;;11.50;99.90;;;;;;4965752;28;20306;-90
2021/04/23 06:08:36;;;;;;;14.47;3.77;;;11.50;99.90;;;;;;4967526;28;20346;-90
2021/04/23 06:11:16;;;;;;;13.50;4.13;;;11.40;99.90;;;;;;4965800;29;20235;-91
2021/04/23 06:13:47;;;;;;;17.83;4.13;;;11.40;99.90;;;;;;4965991;28;20211;-90
2021/04/23 06:16:18;;;;;;;20.13;5.10;;;11.40;99.90;;;;;;4965945;28;20215;-90
2021/04/23 06:18:50;;;;;;;18.30;4.53;;;11.30;99.90;;;;;;4965592;29;20239;-92
2021/04/23 06:21:22;;;;;;;15.90;4.67;;;11.30;99.90;;;;;;4965040;28;20222;-91
2021/04/23 06:23:53;;;;;;;18.73;4.87;;;11.30;99.90;;;;;;4962849;29;20226;-92
2021/04/23 06:26:26;;;;;;;14.23;4.57;;;11.20;99.90;;;;;;4973146;29;20218;-92
2021/04/23 06:28:57;;;;;;;19.77;5.23;;;11.20;99.90;;;;;;4978782;28;20235;-92
2021/04/23 06:31:29;;;;;;;19.77;5.97;;;11.20;99.90;;;;;;4978706;28;20258;-91
2021/04/23 06:34:00;;;;;;;16.80;4.67;;;11.20;99.90;;;;;;4980178;28;20230;-92
2021/04/23 06:36:34;;;;;;;19.30;5.30;;;11.10;99.90;;;;;;4988576;28;20211;-92
2021/04/23 06:39:07;;;;;;;18.77;4.20;;;11.10;99.90;;;;;;4984474;28;20294;-91
2021/04/23 06:41:39;;;;;;;14.33;4.80;;;11.00;99.90;;;;;;4983190;28;20216;-92
2021/04/23 06:44:10;;;;;;;17.93;4.67;;;11.00;99.90;;;;;;4983395;28;20211;-90
2021/04/23 06:46:43;;;;;;;23.50;4.97;;;10.90;99.90;;;;;;4985864;28;20305;-90
2021/04/23 06:49:14;;;;;;;18.53;4.30;;;10.80;99.90;;;;;;4986900;28;20228;-90
2021/04/23 06:51:46;;;;;;;16.10;4.33;;;10.80;99.90;;;;;;4983638;28;20226;-90
2021/04/23 06:54:17;;;;;;;18.17;4.73;;;10.80;99.90;;;;;;4982945;28;20572;-90
2021/04/23 06:56:49;;;;;;;21.30;5.30;;;10.70;99.90;;;;;;4982133;28;20215;-89
2021/04/23 06:59:19;;;;;;;16.90;4.60;;;10.70;99.90;;;;;;4981294;28;20230;-89
2021/04/23 07:01:49;;;;;;;17.23;3.80;;;10.60;99.90;;;;;;4981950;28;20577;-90
2021/04/23 07:04:20;;;;;;;18.53;4.53;;;10.60;99.90;;;;;;4983504;28;20227;-89
2021/04/23 07:06:51;;;;;;;19.87;4.90;;;10.50;99.90;;;;;;4981210;28;20258;-89
2021/04/23 07:09:22;;;;;;;15.30;4.13;;;10.50;99.90;;;;;;4978987;28;20218;-90
2021/04/23 07:11:57;;;;;;;17.00;4.00;;;10.50;99.90;;;;;;4978899;28;20207;-91
2021/04/23 07:14:28;;;;;;;17.23;4.33;;;10.40;99.90;;;;;;4979419;28;20200;-89
2021/04/23 07:16:58;;;;;;;20.00;4.83;;;10.40;99.90;;;;;;4976344;28;20211;-90
2021/04/23 07:19:30;;;;;;;20.50;4.47;;;10.30;99.90;;;;;;4976819;28;20308;-91
2021/04/23 07:22:01;;;;;;;20.50;4.30;;;10.30;99.90;;;;;;4976572;28;20211;-90
2021/04/23 07:24:34;;;;;;;20.07;4.77;;;10.20;99.90;;;;;;4973064;28;20207;-90
2021/04/23 07:27:08;;;;;;;22.17;4.43;;;10.20;99.90;;;;;;4978106;28;20219;-90
2021/04/23 07:29:48;;;;;;;14.83;4.60;;;10.10;99.90;;;;;;4976146;28;20251;-92
2021/04/23 07:32:18;;;;;;;15.60;4.77;;;10.10;99.90;;;;;;4978812;28;20211;-90
2021/04/23 07:34:49;;;;;;;24.60;4.43;;;10.00;99.90;;;;;;4976393;28;20221;-90
2021/04/23 07:37:21;;;;;;;18.23;4.00;;;10.00;99.90;;;;;;4976655;28;20266;-91
2021/04/23 07:39:51;;;;;;;23.77;5.13;;;9.90;99.90;;;;;;4973695;28;20235;-91
2021/04/23 07:42:23;;;;;;;20.63;3.97;;;9.90;99.90;;;;;;4958252;28;20219;-91
2021/04/23 07:44:55;;;;;;;16.73;4.90;;;9.80;99.90;;;;;;4958165;28;20215;-91
2021/04/23 07:47:26;;;;;;;18.63;4.27;;;9.80;99.90;;;;;;4958868;28;20222;-90
2021/04/23 07:49:57;;;;;;;16.47;4.00;;;9.70;99.90;;;;;;4958814;28;20661;-89
2021/04/23 07:52:29;;;;;;;19.43;4.10;;;9.60;99.90;;;;;;4957230;28;20302;-90
2021/04/23 07:55:02;;;;;;;14.57;4.80;;;9.50;99.90;;;;;;4959013;28;20580;-89
2021/04/23 07:57:36;;;;;;;23.40;4.10;;;9.50;99.90;;;;;;4955509;29;20283;-90
2021/04/23 08:00:09;;;;;;;20.40;4.90;;;9.50;99.90;;;;;;4958313;28;20285;-89
2021/04/23 08:02:41;;;;;;;22.00;4.70;;;9.40;99.90;;;;;;4957076;28;20740;-90
2021/04/23 08:05:16;;;;;;;16.50;4.37;;;9.40;99.90;;;;;;4958470;28;20680;-89
2021/04/23 08:08:07;;;;;;;16.57;5.03;;;9.40;99.90;;;;;;4958460;28;20212;-89
2021/04/23 08:10:38;;;;;;;17.00;4.70;;;9.30;99.90;;;;;;4958936;28;20224;-90
2021/04/23 08:13:11;;;;;;;13.50;3.97;;;9.20;99.90;;;;;;4958733;29;20638;-89
2021/04/23 08:15:43;;;;;;;12.80;4.20;;;9.20;99.90;;;;;;4959170;28;20310;-89
2021/04/23 08:18:15;;;;;;;15.30;4.40;;;9.20;99.90;;;;;;4959146;28;20237;-91
2021/04/23 08:20:46;;;;;;;16.57;4.70;;;9.10;99.90;;;;;;4960897;28;20207;-90
2021/04/23 08:23:17;;;;;;;15.33;4.10;;;9.10;99.90;;;;;;4964295;28;20222;-91
2021/04/23 08:25:50;;;;;;;16.37;3.80;;;9.10;99.90;;;;;;4964762;28;20545;-91
2021/04/23 08:28:23;;;;;;;18.83;4.37;;;9.10;99.90;;;;;;4963029;28;20219;-90
2021/04/23 08:30:54;;;;;;;18.57;4.60;;;9.00;99.90;;;;;;4974329;28;20222;-90
2021/04/23 08:33:26;;;;;;;20.97;4.50;;;9.00;99.90;;;;;;4979912;28;20226;-90
2021/04/23 08:35:58;;;;;;;23.13;4.37;;;9.00;99.90;;;;;;4978532;28;20317;-90
2021/04/23 08:38:29;;;;;;;15.57;4.73;;;9.00;99.90;;;;;;4979115;28;20671;-90
2021/04/23 08:41:00;;;;;;;15.90;4.20;;;9.00;99.90;;;;;;4977612;28;20274;-90
2021/04/23 08:43:34;;;;;;;20.70;4.67;;;8.90;99.90;;;;;;4980718;28;20211;-91
2021/04/23 08:46:06;;;;;;;17.37;4.80;;;8.90;99.90;;;;;;4996019;28;20230;-90
2021/04/23 08:48:38;;;;;;;22.43;4.83;;;8.90;99.90;;;;;;4997471;28;20224;-90
2021/04/23 08:51:10;;;;;;;16.03;4.37;;;8.80;99.90;;;;;;4992833;28;20215;-89
2021/04/23 08:53:41;;;;;;;15.10;4.73;;;8.70;99.90;;;;;;4988101;28;20210;-89
2021/04/23 08:56:12;;;;;;;18.73;4.90;;;8.70;99.90;;;;;;4987789;28;20665;-89
2021/04/23 08:58:45;;;;;;;15.50;3.97;;;8.60;99.90;;;;;;4987483;28;20236;-89
2021/04/23 09:01:17;;;;;;;20.57;5.27;;;8.60;99.90;;;;;;4986673;28;20267;-89
2021/04/23 09:03:49;;;;;;;20.90;5.10;;;8.50;99.90;;;;;;4981760;28;20207;-89
2021/04/23 09:06:24;;;;;;;20.73;4.80;;;8.50;99.90;;;;;;4980738;28;20214;-89
2021/04/23 09:09:07;;;;;;;17.70;4.73;;;8.40;99.90;;;;;;4992981;28;20222;-89
2021/04/23 09:11:43;;;;;;;18.30;4.73;;;8.50;99.90;;;;;;4997984;28;20306;-87
2021/04/23 09:14:22;;;;;;;17.60;4.47;;;8.40;99.90;;;;;;4986416;28;20259;-89
2021/04/23 09:16:59;;;;;;;19.70;4.87;;;8.40;99.90;;;;;;4978989;28;20305;-89
2021/04/23 09:19:32;;;;;;;15.87;4.50;;;8.30;99.90;;;;;;4968478;28;20256;-90
2021/04/23 09:22:09;;;;;;;22.60;4.43;;;8.30;99.90;;;;;;4959985;28;20226;-90
2021/04/23 09:24:42;;;;;;;24.73;5.20;;;8.30;99.90;;;;;;4959844;28;20203;-90
2021/04/23 09:27:15;;;;;;;18.70;4.10;;;8.30;99.90;;;;;;4960343;28;20212;-91
2021/04/23 09:29:50;;;;;;;18.17;4.30;;;8.30;99.90;;;;;;4962354;28;20211;-90
2021/04/23 09:32:27;;;;;;;19.00;4.70;;;8.20;99.90;;;;;;4977757;28;20256;-88
2021/04/23 09:35:01;;;;;;;16.93;3.73;;;8.20;99.90;;;;;;4979409;28;20210;-90
2021/04/23 09:37:40;;;;;;;16.73;4.40;;;8.20;99.90;;;;;;4977190;28;20237;-91
2021/04/23 09:40:13;;;;;;;20.47;4.77;;;8.20;99.90;;;;;;4976809;28;20234;-91
2021/04/23 09:42:49;;;;;;;19.17;4.57;;;8.20;99.90;;;;;;4977195;28;20214;-90
2021/04/23 09:45:24;;;;;;;20.67;4.73;;;8.20;99.90;;;;;;4976452;28;20208;-90
2021/04/23 09:47:56;;;;;;;21.10;4.90;;;8.20;99.90;;;;;;4976471;28;20314;-88
2021/04/23 09:50:33;;;;;;;18.50;4.47;;;8.20;99.90;;;;;;4980581;28;20205;-89
2021/04/23 09:53:04;;;;;;;21.30;4.67;;;8.10;99.90;;;;;;4981195;28;20214;-90
2021/04/23 09:55:36;;;;;;;21.90;5.07;;;8.10;99.90;;;;;;4978043;28;20207;-89
2021/04/23 09:58:07;;;;;;;21.53;4.43;;;8.10;99.90;;;;;;4977457;28;20209;-89
2021/04/23 10:00:41;;;;;;;17.30;4.23;;;8.10;99.90;;;;;;4977192;28;20285;-90
2021/04/23 10:03:12;;;;;;;20.13;4.37;;;8.00;99.90;;;;;;4977103;28;20306;-88
2021/04/23 10:05:44;;;;;;;16.97;4.13;;;8.00;99.90;;;;;;4976131;28;20568;-89
2021/04/23 10:08:27;;;;;;;21.03;4.80;;;8.10;99.90;;;;;;4975580;28;20214;-89
2021/04/23 10:10:59;;;;;;;21.00;6.07;;;8.00;99.90;;;;;;4975796;28;20223;-89
2021/04/23 10:13:31;;;;;;;24.20;4.97;;;8.00;99.90;;;;;;4977073;28;20298;-88
2021/04/23 10:16:04;;;;;;;18.33;4.13;;;8.00;99.90;;;;;;4975478;28;20222;-88
2021/04/23 10:18:36;;;;;;;16.00;3.63;;;8.00;99.90;;;;;;4976741;28;20296;-90
2021/04/23 10:21:08;;;;;;;18.10;4.50;;;8.00;99.90;;;;;;4975900;28;20257;-90
2021/04/23 10:23:39;;;;;;;20.17;4.47;;;8.00;99.90;;;;;;4976709;28;20265;-90
2021/04/23 10:26:10;;;;;;;20.87;4.07;;;7.90;99.90;;;;;;4975438;28;20296;-90
2021/04/23 10:28:41;;;;;;;23.43;5.00;;;8.00;99.90;;;;;;4975301;28;20540;-90
2021/04/23 10:31:14;;;;;;;18.83;4.10;;;7.90;99.90;;;;;;4976462;28;20211;-90
2021/04/23 10:33:46;;;;;;;17.73;4.93;;;7.90;99.90;;;;;;4976198;28;20209;-89
2021/04/23 10:36:17;;;;;;;16.17;4.80;;;7.90;99.90;;;;;;4974980;28;20302;-91
2021/04/23 10:38:49;;;;;;;21.17;4.90;;;8.10;99.90;;;;;;4957674;28;20548;-89
2021/04/23 10:41:20;;;;;;;18.20;4.33;;;8.00;99.90;;;;;;4957861;28;20252;-89
2021/04/23 10:43:55;;;;;;;22.83;6.10;;;8.00;99.90;;;;;;4957975;28;20654;-90
2021/04/23 10:46:28;;;;;;;20.67;4.70;;;8.00;99.90;;;;;;4958946;28;20227;-90
2021/04/23 10:49:08;;;;;;;17.30;4.77;;;7.90;99.90;;;;;;4961539;28;20631;-89
2021/04/23 10:51:39;;;;;;;22.77;4.63;;;8.00;99.90;;;;;;4963011;28;20218;-89
2021/04/23 10:54:14;;;;;;;16.50;4.57;;;8.00;99.90;;;;;;4962842;28;20225;-89
2021/04/23 10:56:55;;;;;;;27.67;5.20;;;8.00;99.90;;;;;;4968217;28;20257;-89
2021/04/23 10:59:32;;;;;;;16.80;4.33;;;8.10;99.90;;;;;;4967483;28;20235;-89
2021/04/23 11:02:25;;;;;;;25.33;5.40;;;8.00;99.90;;;;;;4967172;28;20239;-88
2021/04/23 11:04:57;;;;;;;25.30;5.57;;;8.10;99.90;;;;;;4965225;28;20219;-89
2021/04/23 11:07:28;;;;;;;23.00;4.93;;;8.10;99.90;;;;;;4971967;28;20199;-89
2021/04/23 11:10:02;;;;;;;19.27;4.30;;;8.00;99.90;;;;;;4976273;28;20217;-89
2021/04/23 11:12:32;;;;;;;25.60;5.37;;;8.00;99.90;;;;;;4975789;28;20199;-89
2021/04/23 11:15:24;;;;;;;17.57;4.50;;;8.00;99.90;;;;;;4977041;28;20231;-88
2021/04/23 11:18:36;;;;;;;16.80;5.50;;;8.00;99.90;;;;;;4978873;28;20211;-89
2021/04/23 11:21:38;;;;;;;16.40;4.50;;;8.00;99.90;;;;;;4978813;28;20602;-91
2021/04/23 11:24:14;;;;;;;18.13;4.53;;;8.00;99.90;;;;;;4980116;28;20208;-90
2021/04/23 11:27:07;;;;;;;18.03;4.63;;;8.00;99.90;;;;;;4980152;28;20259;-91
2021/04/23 11:29:41;;;;;;;14.57;4.60;;;8.00;99.90;;;;;;4979452;28;20207;-90
2021/04/23 11:32:21;;;;;;;22.93;5.13;;;8.00;99.90;;;;;;4978544;28;20262;-90
2021/04/23 11:34:55;;;;;;;19.40;4.83;;;7.90;99.90;;;;;;4979138;28;20223;-91
2021/04/23 11:37:28;;;;;;;24.53;5.73;;;7.90;99.90;;;;;;4983528;28;20203;-91
2021/04/23 11:40:01;;;;;;;21.23;5.40;;;7.90;99.90;;;;;;4982344;28;20250;-91
2021/04/23 11:42:44;;;;;;;20.30;5.17;;;7.90;99.90;;;;;;4985991;28;20257;-90
2021/04/23 11:45:15;;;;;;;15.37;4.67;;;7.80;99.90;;;;;;4994277;28;20282;-90
2021/04/23 11:47:48;;;;;;;19.73;4.77;;;7.90;99.90;;;;;;4996839;28;20234;-89
2021/04/23 11:50:24;;;;;;;17.37;4.73;;;7.90;99.90;;;;;;4998837;28;20214;-90
2021/04/23 11:52:56;;;;;;;21.57;4.93;;;7.90;99.90;;;;;;4982916;28;20211;-89
2021/04/23 11:55:28;;;;;;;20.00;5.37;;;7.90;99.90;;;;;;4982147;28;20209;-90
2021/04/23 11:58:06;;;;;;;20.27;4.97;;;7.80;99.90;;;;;;4981961;28;20214;-91
2021/04/23 12:00:38;;;;;;;17.57;4.33;;;7.80;99.90;;;;;;4981073;28;20234;-88
2021/04/23 12:03:08;;;;;;;17.43;4.70;;;7.70;99.90;;;;;;4981928;28;20230;-89
2021/04/23 12:05:45;;;;;;;21.13;5.03;;;7.70;99.90;;;;;;4981840;28;20206;-89
2021/04/23 12:08:17;;;;;;;17.73;4.67;;;7.70;99.90;;;;;;4982534;28;20674;-89
2021/04/23 12:10:51;;;;;;;24.10;5.20;;;7.70;99.90;;;;;;4982311;28;20238;-90
2021/04/23 12:13:23;;;;;;;21.43;4.63;;;7.60;99.90;;;;;;4982009;28;20210;-90
2021/04/23 12:15:56;;;;;;;23.30;5.50;;;7.70;99.90;;;;;;4981706;28;20672;-89
2021/04/23 12:18:27;;;;;;;17.03;5.00;;;7.70;99.90;;;;;;4981981;28;20207;-90
2021/04/23 12:21:01;;;;;;;23.70;4.90;;;7.70;99.90;;;;;;4981643;28;20256;-90
2021/04/23 12:23:33;;;;;;;24.00;5.90;;;7.80;99.90;;;;;;4983024;28;20213;-91
2021/04/23 12:26:06;;;;;;;15.60;5.30;;;7.60;99.90;;;;;;4982941;28;20218;-90
2021/04/23 12:28:39;;;;;;;17.77;5.23;;;7.60;99.90;;;;;;4983122;28;20213;-90
2021/04/23 12:31:16;;;;;;;24.10;6.30;;;7.60;99.90;;;;;;4983246;28;20218;-90
2021/04/23 12:33:48;;;;;;;17.93;4.80;;;7.60;99.90;;;;;;4983339;28;20302;-91
2021/04/23 12:36:24;;;;;;;21.63;6.17;;;7.60;99.90;;;;;;4982683;28;20218;-91
2021/04/23 12:38:57;;;;;;;21.80;5.03;;;7.50;99.90;;;;;;4984234;28;20672;-91
2021/04/23 12:41:31;;;;;;;26.10;5.63;;;7.50;99.90;;;;;;4986140;28;20213;-91
2021/04/23 12:44:05;;;;;;;23.90;5.50;;;7.50;99.90;;;;;;4987266;28;20239;-91
2021/04/23 12:46:37;;;;;;;21.80;6.47;;;7.50;99.90;;;;;;4984977;28;20719;-90
2021/04/23 12:49:12;;;;;;;19.90;5.73;;;7.40;99.90;;;;;;4984448;28;20670;-90
2021/04/23 12:51:48;;;;;;;28.50;5.93;;;7.40;99.90;;;;;;4986203;28;20258;-90
2021/04/23 12:54:21;;;;;;;26.00;6.70;;;7.40;99.90;;;;;;4988137;28;20668;-89
2021/04/23 12:56:57;;;;;;;21.77;5.90;;;7.30;99.90;;;;;;4988667;28;20749;-89
2021/04/23 12:59:40;;;;;;;26.30;5.57;;;7.40;99.90;;;;;;4987496;28;20327;-89
2021/04/23 13:02:13;;;;;;;18.13;5.00;;;7.40;99.90;;;;;;4983796;28;20239;-90
2021/04/23 13:04:46;;;;;;;27.60;6.47;;;7.40;99.90;;;;;;4982081;28;20241;-90
2021/04/23 13:07:20;;;;;;;19.03;5.33;;;7.30;99.90;;;;;;4982419;28;20207;-90
2021/04/23 13:09:52;;;;;;;24.47;5.43;;;7.40;99.90;;;;;;4975970;28;20258;-90
2021/04/23 13:12:25;;;;;;;21.90;5.70;;;7.40;99.90;;;;;;4964109;28;20207;-89
2021/04/23 13:14:57;;;;;;;22.87;5.37;;;7.30;99.90;;;;;;4963249;28;20229;-90